Boutersem, Belgium
Current Conditions -  °F | °C
As of 10:25 PM on Friday 19 Dec 2014 (Local Time) from EBBE Reporting Station
Clear Clear  
Wind Chill: 34°   Ceiling: Unl
Heat Index: 41°   Visibility: 6mi
Dew Point: 36°   Wind: 12mph
Humidity: 81%   Direction: 250°WSW
Pressure: 30.15"   Gusts: NA
Location:  50.84°N, 4.83°E
Report Text: EBBE 192125Z AUTO 25010KT 9999 NCD 05/02 Q1021 BLU
Loading
Personal Weather Stations






























Interactive Weather Map New forecast layout! Learn more

10-Day Weather Forecast

Advertisements
Track Severe Weather on mobile